Time;durP1;ratioP1;P1;durP2;ratioP2;P2;SDS_P1;SDS_P2;PMS_P1;PMS_P2;Temp;Humidity;BMP_temperature;BMP_pressure;BME280_temperature;BME280_humidity;BME280_pressure;Samples;Min_cycle;Max_cycle;Signal;HPM_P1;HPM_P2
2021/05/23 00:01:30;;;;;;;;;;;19.00;44.70;;;;;;491470;240;1083;-73
2021/05/23 00:03:31;;;;;;;;;;;19.00;44.80;;;;;;491553;240;1100;-73
2021/05/23 00:05:32;;;;;;;;;;;19.00;45.00;;;;;;491523;240;1056;-73
2021/05/23 00:07:34;;;;;;;;;;;19.00;45.10;;;;;;491532;240;1054;-73
2021/05/23 00:09:35;;;;;;;;;;;18.90;45.00;;;;;;491493;240;987;-73
2021/05/23 00:11:36;;;;;;;;;;;19.00;45.10;;;;;;491482;240;2180;-73
2021/05/23 00:13:37;;;;;;;;;;;18.90;45.10;;;;;;491558;240;1155;-73
2021/05/23 00:15:39;;;;;;;;;;;19.00;45.10;;;;;;491549;240;991;-73
2021/05/23 00:17:40;;;;;;;;;;;19.00;45.10;;;;;;491592;240;1102;-73
2021/05/23 00:19:41;;;;;;;;;;;19.00;45.00;;;;;;491538;240;1084;-73
2021/05/23 00:21:43;;;;;;;;;;;19.00;45.00;;;;;;491506;240;1221;-73
2021/05/23 00:23:44;;;;;;;;;;;19.10;45.00;;;;;;491558;240;1026;-73
2021/05/23 00:25:45;;;;;;;;;;;19.00;44.90;;;;;;491519;240;1281;-73
2021/05/23 00:27:46;;;;;;;;;;;19.00;45.00;;;;;;491513;240;1173;-73
2021/05/23 00:29:48;;;;;;;;;;;19.00;45.00;;;;;;491539;240;1190;-73
2021/05/23 00:31:49;;;;;;;;;;;19.10;45.00;;;;;;491482;240;2152;-73
2021/05/23 00:33:50;;;;;;;;;;;19.10;45.00;;;;;;491494;240;1020;-73
2021/05/23 00:35:52;;;;;;;;;;;19.10;45.10;;;;;;491488;240;1236;-73
2021/05/23 00:37:53;;;;;;;;;;;19.00;45.10;;;;;;491488;240;1142;-73
2021/05/23 00:39:54;;;;;;;;;;;19.00;45.20;;;;;;491492;240;1018;-73
2021/05/23 00:41:55;;;;;;;;;;;19.00;45.30;;;;;;491482;240;979;-73
2021/05/23 00:43:57;;;;;;;;;;;19.00;45.30;;;;;;491548;240;1154;-73
2021/05/23 00:45:58;;;;;;;;;;;19.00;45.40;;;;;;491475;240;1067;-73
2021/05/23 00:47:59;;;;;;;;;;;19.00;45.40;;;;;;491562;240;1019;-73
2021/05/23 00:50:01;;;;;;;;;;;19.10;45.50;;;;;;491546;240;1048;-72
2021/05/23 00:52:02;;;;;;;;;;;19.10;45.50;;;;;;491618;240;2204;-73
2021/05/23 00:54:03;;;;;;;;;;;19.10;45.40;;;;;;491633;240;1062;-73
2021/05/23 00:56:05;;;;;;;;;;;19.00;45.50;;;;;;491593;240;965;-73
2021/05/23 00:58:06;;;;;;;;;;;19.00;45.60;;;;;;491465;240;1083;-73
2021/05/23 01:00:07;;;;;;;;;;;19.00;45.60;;;;;;491529;240;1226;-73
2021/05/23 01:02:10;;;;;;;;;;;19.00;45.70;;;;;;491507;240;1084;-73
2021/05/23 01:04:10;;;;;;;;;;;19.00;45.90;;;;;;491460;240;1465;-73
2021/05/23 01:06:11;;;;;;;;;;;19.00;45.90;;;;;;491461;240;1029;-73
2021/05/23 01:08:12;;;;;;;;;;;19.00;46.00;;;;;;491535;240;1056;-73
2021/05/23 01:10:14;;;;;;;;;;;19.00;45.90;;;;;;491568;240;1230;-73
2021/05/23 01:12:15;;;;;;;;;;;19.00;45.90;;;;;;491540;240;2188;-72
2021/05/23 01:14:16;;;;;;;;;;;19.10;45.90;;;;;;491603;240;1157;-73
2021/05/23 01:16:17;;;;;;;;;;;19.10;45.90;;;;;;491468;240;1036;-73
2021/05/23 01:18:19;;;;;;;;;;;19.00;46.00;;;;;;491561;240;1073;-73
2021/05/23 01:20:20;;;;;;;;;;;19.00;46.10;;;;;;491497;240;1054;-73
2021/05/23 01:22:21;;;;;;;;;;;19.00;46.10;;;;;;491521;240;1087;-73
2021/05/23 01:24:23;;;;;;;;;;;19.00;46.10;;;;;;491447;240;1014;-73
2021/05/23 01:26:24;;;;;;;;;;;19.00;46.10;;;;;;491517;240;1034;-73
2021/05/23 01:28:25;;;;;;;;;;;19.10;46.20;;;;;;491490;240;1128;-73
2021/05/23 01:30:27;;;;;;;;;;;19.10;46.20;;;;;;491502;240;1189;-73
2021/05/23 01:32:28;;;;;;;;;;;19.00;46.20;;;;;;491426;240;2184;-73
2021/05/23 01:34:29;;;;;;;;;;;19.00;46.30;;;;;;491445;240;1191;-73
2021/05/23 01:36:31;;;;;;;;;;;19.00;46.40;;;;;;491535;240;1039;-73
2021/05/23 01:38:32;;;;;;;;;;;19.00;46.50;;;;;;491573;240;1056;-73
2021/05/23 01:40:34;;;;;;;;;;;19.00;46.50;;;;;;491628;240;1082;-72
2021/05/23 01:42:35;;;;;;;;;;;19.00;46.50;;;;;;491509;240;1050;-73
2021/05/23 01:44:36;;;;;;;;;;;19.00;46.50;;;;;;491475;240;1181;-73
2021/05/23 01:46:37;;;;;;;;;;;19.10;46.50;;;;;;491513;240;1276;-73
2021/05/23 01:48:39;;;;;;;;;;;19.00;46.50;;;;;;491581;240;1048;-73
2021/05/23 01:50:40;;;;;;;;;;;19.10;46.60;;;;;;491481;240;999;-73
2021/05/23 01:52:41;;;;;;;;;;;19.00;46.50;;;;;;491505;240;2144;-72
2021/05/23 01:54:44;;;;;;;;;;;19.10;46.60;;;;;;491425;240;1012;-73
2021/05/23 01:56:44;;;;;;;;;;;19.10;46.60;;;;;;491486;240;1380;-73
2021/05/23 01:58:45;;;;;;;;;;;19.10;46.60;;;;;;491493;240;999;-72
2021/05/23 02:00:46;;;;;;;;;;;19.00;46.60;;;;;;491522;240;1174;-73
2021/05/23 02:02:48;;;;;;;;;;;19.10;46.70;;;;;;491574;240;1173;-73
2021/05/23 02:04:49;;;;;;;;;;;19.10;46.80;;;;;;491556;240;1039;-72
2021/05/23 02:06:50;;;;;;;;;;;19.10;46.70;;;;;;491641;240;1044;-73
2021/05/23 02:08:52;;;;;;;;;;;19.10;46.60;;;;;;491592;240;1058;-73
2021/05/23 02:10:53;;;;;;;;;;;19.10;46.60;;;;;;491552;240;1184;-73
2021/05/23 02:12:55;;;;;;;;;;;19.10;46.60;;;;;;491517;240;2180;-73
2021/05/23 02:14:55;;;;;;;;;;;19.10;46.60;;;;;;491544;240;1432;-73
2021/05/23 02:16:57;;;;;;;;;;;19.00;46.70;;;;;;491428;240;1227;-73
2021/05/23 02:18:58;;;;;;;;;;;19.10;46.80;;;;;;491497;240;1067;-73
2021/05/23 02:20:59;;;;;;;;;;;19.00;46.90;;;;;;491469;240;1226;-73
2021/05/23 02:23:01;;;;;;;;;;;19.00;46.90;;;;;;491453;240;1091;-73
2021/05/23 02:25:02;;;;;;;;;;;19.00;46.90;;;;;;491483;240;1027;-73
2021/05/23 02:27:03;;;;;;;;;;;19.00;46.90;;;;;;491448;240;1121;-73
2021/05/23 02:29:04;;;;;;;;;;;19.00;46.90;;;;;;491593;240;1079;-73
2021/05/23 02:31:06;;;;;;;;;;;19.00;46.90;;;;;;491522;240;1189;-73
2021/05/23 02:33:07;;;;;;;;;;;19.00;47.00;;;;;;491626;240;2180;-73
2021/05/23 02:35:08;;;;;;;;;;;19.00;47.00;;;;;;491614;240;1041;-73
2021/05/23 02:37:10;;;;;;;;;;;19.00;47.00;;;;;;491515;240;1328;-73
2021/05/23 02:39:11;;;;;;;;;;;19.00;47.10;;;;;;491480;240;1052;-73
2021/05/23 02:41:12;;;;;;;;;;;19.00;47.10;;;;;;491583;240;1073;-73
2021/05/23 02:43:13;;;;;;;;;;;19.00;47.00;;;;;;491601;240;1090;-73
2021/05/23 02:45:15;;;;;;;;;;;19.00;47.00;;;;;;491469;240;1148;-73
2021/05/23 02:47:16;;;;;;;;;;;19.00;47.00;;;;;;491472;240;1044;-73
2021/05/23 02:49:17;;;;;;;;;;;19.00;46.90;;;;;;491438;240;969;-73
2021/05/23 02:51:19;;;;;;;;;;;19.00;46.80;;;;;;491390;240;1072;-73
2021/05/23 02:53:20;;;;;;;;;;;19.00;46.80;;;;;;491434;240;2184;-73
2021/05/23 02:55:21;;;;;;;;;;;19.00;46.80;;;;;;491518;240;1051;-73
2021/05/23 02:57:23;;;;;;;;;;;19.00;46.80;;;;;;491574;240;1174;-73
2021/05/23 02:59:24;;;;;;;;;;;19.00;46.80;;;;;;491551;240;1074;-74
2021/05/23 03:01:25;;;;;;;;;;;19.00;46.70;;;;;;491549;240;1157;-73
2021/05/23 03:03:26;;;;;;;;;;;19.00;46.70;;;;;;491483;240;1155;-72
2021/05/23 03:05:28;;;;;;;;;;;19.00;46.60;;;;;;491496;240;1059;-73
2021/05/23 03:07:29;;;;;;;;;;;19.00;46.60;;;;;;491429;240;1093;-73
2021/05/23 03:09:31;;;;;;;;;;;19.00;46.50;;;;;;491545;240;1029;-73
2021/05/23 03:11:32;;;;;;;;;;;19.00;46.50;;;;;;491331;240;1244;-73
2021/05/23 03:13:33;;;;;;;;;;;19.00;46.40;;;;;;491453;240;2196;-73
2021/05/23 03:15:34;;;;;;;;;;;19.00;46.20;;;;;;491406;240;1291;-72
2021/05/23 03:17:36;;;;;;;;;;;19.00;46.20;;;;;;491403;240;1071;-73
2021/05/23 03:19:37;;;;;;;;;;;19.00;46.10;;;;;;491466;240;1072;-72
2021/05/23 03:21:39;;;;;;;;;;;19.00;46.10;;;;;;491512;240;1214;-73
2021/05/23 03:23:40;;;;;;;;;;;19.00;46.10;;;;;;491629;240;1152;-73
2021/05/23 03:25:41;;;;;;;;;;;19.00;46.10;;;;;;491558;240;1157;-73
2021/05/23 03:27:43;;;;;;;;;;;18.90;46.10;;;;;;491601;240;1090;-73
2021/05/23 03:29:44;;;;;;;;;;;18.90;46.20;;;;;;491609;240;1107;-73
2021/05/23 03:31:45;;;;;;;;;;;19.00;46.10;;;;;;491721;240;1309;-73
2021/05/23 03:33:47;;;;;;;;;;;19.00;46.00;;;;;;491561;240;2183;-73
2021/05/23 03:35:48;;;;;;;;;;;19.00;46.00;;;;;;491636;240;1075;-72
2021/05/23 03:37:49;;;;;;;;;;;19.00;45.80;;;;;;491542;240;1093;-73
2021/05/23 03:39:50;;;;;;;;;;;19.00;45.80;;;;;;491476;240;1074;-73
2021/05/23 03:41:52;;;;;;;;;;;19.00;45.90;;;;;;491490;240;1109;-73
2021/05/23 03:43:53;;;;;;;;;;;19.00;46.00;;;;;;491531;240;1112;-73
2021/05/23 03:45:54;;;;;;;;;;;19.00;46.00;;;;;;491465;240;1098;-73
2021/05/23 03:47:56;;;;;;;;;;;19.00;46.00;;;;;;491589;240;1024;-73
2021/05/23 03:49:57;;;;;;;;;;;19.00;46.00;;;;;;491590;240;1537;-73
2021/05/23 03:51:58;;;;;;;;;;;19.00;45.90;;;;;;491623;240;1108;-73
2021/05/23 03:53:59;;;;;;;;;;;19.00;45.90;;;;;;491569;240;2136;-73
2021/05/23 03:56:01;;;;;;;;;;;19.00;45.90;;;;;;491624;240;1057;-73
2021/05/23 03:58:03;;;;;;;;;;;19.00;45.90;;;;;;491646;240;1032;-73
2021/05/23 04:00:03;;;;;;;;;;;19.00;45.80;;;;;;491572;240;1463;-74
2021/05/23 04:02:05;;;;;;;;;;;19.00;45.90;;;;;;491627;240;1204;-73
2021/05/23 04:04:07;;;;;;;;;;;19.10;45.90;;;;;;491461;240;1065;-73
2021/05/23 04:06:07;;;;;;;;;;;19.10;45.90;;;;;;491520;240;1431;-73
2021/05/23 04:08:08;;;;;;;;;;;19.10;46.00;;;;;;491544;240;960;-73
2021/05/23 04:10:10;;;;;;;;;;;19.00;46.00;;;;;;491498;240;1059;-73
2021/05/23 04:12:11;;;;;;;;;;;19.00;46.00;;;;;;491553;240;978;-73
2021/05/23 04:14:12;;;;;;;;;;;19.00;46.00;;;;;;491540;240;2191;-73
2021/05/23 04:16:14;;;;;;;;;;;19.10;46.10;;;;;;491555;240;1095;-73
2021/05/23 04:18:15;;;;;;;;;;;19.10;46.10;;;;;;491738;240;1070;-73
2021/05/23 04:20:16;;;;;;;;;;;19.10;46.10;;;;;;491609;240;1018;-73
2021/05/23 04:22:17;;;;;;;;;;;19.00;46.10;;;;;;491572;240;1119;-72
2021/05/23 04:24:19;;;;;;;;;;;19.00;46.10;;;;;;491604;240;955;-73
2021/05/23 04:26:20;;;;;;;;;;;19.00;46.20;;;;;;491583;240;1165;-73
2021/05/23 04:28:21;;;;;;;;;;;19.10;46.20;;;;;;491547;240;960;-73
2021/05/23 04:30:23;;;;;;;;;;;19.10;46.30;;;;;;491469;240;1071;-73
2021/05/23 04:32:24;;;;;;;;;;;19.00;46.30;;;;;;491515;240;1155;-72
2021/05/23 04:34:25;;;;;;;;;;;19.00;46.30;;;;;;491466;240;2166;-73
2021/05/23 04:36:26;;;;;;;;;;;19.00;46.30;;;;;;491543;240;1198;-73
2021/05/23 04:38:28;;;;;;;;;;;19.00;46.30;;;;;;491565;240;982;-73
2021/05/23 04:40:29;;;;;;;;;;;19.10;46.30;;;;;;491528;240;1090;-73
2021/05/23 04:42:30;;;;;;;;;;;19.00;46.20;;;;;;491536;240;961;-73
2021/05/23 04:44:32;;;;;;;;;;;19.00;46.30;;;;;;491627;240;1147;-73
2021/05/23 04:46:33;;;;;;;;;;;19.00;46.30;;;;;;491554;240;1302;-73
2021/05/23 04:48:34;;;;;;;;;;;19.00;46.40;;;;;;491569;240;1198;-73
2021/05/23 04:50:35;;;;;;;;;;;19.00;46.40;;;;;;491522;240;1125;-73
2021/05/23 04:52:37;;;;;;;;;;;19.00;46.50;;;;;;491588;240;1161;-73
2021/05/23 04:54:38;;;;;;;;;;;19.00;46.40;;;;;;491590;240;2184;-73
2021/05/23 04:56:39;;;;;;;;;;;19.00;46.40;;;;;;491490;240;1170;-73
2021/05/23 04:58:41;;;;;;;;;;;19.10;46.30;;;;;;491529;240;1062;-73
2021/05/23 05:00:42;;;;;;;;;;;19.10;46.30;;;;;;491529;240;1034;-73
2021/05/23 05:02:44;;;;;;;;;;;19.00;46.40;;;;;;491516;240;1144;-73
2021/05/23 05:04:44;;;;;;;;;;;19.00;46.50;;;;;;491489;240;1444;-73
2021/05/23 05:06:46;;;;;;;;;;;19.00;46.50;;;;;;491493;240;1247;-73
2021/05/23 05:08:47;;;;;;;;;;;19.00;46.50;;;;;;491626;240;1043;-73
2021/05/23 05:10:48;;;;;;;;;;;19.00;46.50;;;;;;491632;240;1037;-73
2021/05/23 05:12:50;;;;;;;;;;;19.00;46.50;;;;;;491599;240;1148;-73
2021/05/23 05:14:51;;;;;;;;;;;19.00;46.50;;;;;;491520;240;2175;-73
2021/05/23 05:16:52;;;;;;;;;;;19.00;46.50;;;;;;491529;240;1318;-73
2021/05/23 05:18:54;;;;;;;;;;;19.00;46.50;;;;;;491593;240;1128;-73
2021/05/23 05:20:55;;;;;;;;;;;19.00;46.40;;;;;;491560;240;1076;-73
2021/05/23 05:22:56;;;;;;;;;;;19.10;46.30;;;;;;491493;240;1064;-73
2021/05/23 05:24:57;;;;;;;;;;;19.10;46.30;;;;;;491525;240;1121;-73
2021/05/23 05:26:59;;;;;;;;;;;19.10;46.30;;;;;;491487;240;1108;-73
2021/05/23 05:29:00;;;;;;;;;;;19.10;46.30;;;;;;491529;240;1005;-73
2021/05/23 05:31:01;;;;;;;;;;;19.00;46.30;;;;;;491420;240;1053;-73
2021/05/23 05:33:03;;;;;;;;;;;19.00;46.30;;;;;;491445;240;1166;-73
2021/05/23 05:35:04;;;;;;;;;;;19.00;46.30;;;;;;491555;240;2175;-73
2021/05/23 05:37:05;;;;;;;;;;;19.00;46.40;;;;;;491553;240;970;-73
2021/05/23 05:39:06;;;;;;;;;;;19.00;46.40;;;;;;491615;240;974;-73
2021/05/23 05:41:08;;;;;;;;;;;19.00;46.30;;;;;;491547;240;949;-72
2021/05/23 05:43:09;;;;;;;;;;;19.00;46.30;;;;;;491620;240;1063;-73
2021/05/23 05:45:10;;;;;;;;;;;19.00;46.30;;;;;;491565;240;1054;-73
2021/05/23 05:47:12;;;;;;;;;;;19.00;46.30;;;;;;491457;240;1840;-73
2021/05/23 05:49:13;;;;;;;;;;;19.00;46.30;;;;;;491615;240;991;-73
2021/05/23 05:51:14;;;;;;;;;;;19.00;46.30;;;;;;491380;240;1092;-73
2021/05/23 05:53:15;;;;;;;;;;;19.00;46.30;;;;;;491449;240;1103;-73
2021/05/23 05:55:17;;;;;;;;;;;19.00;46.30;;;;;;491409;240;2190;-73
2021/05/23 05:57:18;;;;;;;;;;;19.00;46.20;;;;;;491433;240;1131;-73
2021/05/23 05:59:19;;;;;;;;;;;19.00;46.20;;;;;;491552;240;1160;-73
2021/05/23 06:01:21;;;;;;;;;;;19.00;46.20;;;;;;491480;240;1182;-72
2021/05/23 06:03:22;;;;;;;;;;;19.00;46.10;;;;;;491533;240;1169;-73
2021/05/23 06:05:23;;;;;;;;;;;19.00;46.10;;;;;;491558;240;1109;-73
2021/05/23 06:07:25;;;;;;;;;;;19.00;46.10;;;;;;491530;240;1111;-73
2021/05/23 06:09:26;;;;;;;;;;;19.00;46.10;;;;;;491610;240;1012;-73
2021/05/23 06:11:27;;;;;;;;;;;19.00;46.00;;;;;;491487;240;1100;-73
2021/05/23 06:13:29;;;;;;;;;;;19.00;46.00;;;;;;491605;240;1102;-73
2021/05/23 06:15:30;;;;;;;;;;;19.00;46.10;;;;;;491525;240;2137;-73
2021/05/23 06:17:31;;;;;;;;;;;19.00;46.10;;;;;;491458;240;1139;-73
2021/05/23 06:19:32;;;;;;;;;;;19.00;46.10;;;;;;491452;240;1047;-73
2021/05/23 06:21:34;;;;;;;;;;;19.00;46.10;;;;;;491440;240;1207;-73
2021/05/23 06:23:35;;;;;;;;;;;18.90;46.10;;;;;;491540;240;1034;-73
2021/05/23 06:25:36;;;;;;;;;;;18.90;46.00;;;;;;491521;240;1054;-73
2021/05/23 06:27:38;;;;;;;;;;;19.00;46.10;;;;;;491523;240;1073;-73
2021/05/23 06:29:39;;;;;;;;;;;19.00;46.10;;;;;;491563;240;1228;-73
2021/05/23 06:31:40;;;;;;;;;;;19.00;46.10;;;;;;491573;240;1038;-73
2021/05/23 06:33:41;;;;;;;;;;;19.00;46.00;;;;;;491545;240;1217;-73
2021/05/23 06:35:43;;;;;;;;;;;19.00;46.00;;;;;;491521;240;2196;-73
2021/05/23 06:37:45;;;;;;;;;;;19.00;46.00;;;;;;491550;240;1028;-73
2021/05/23 06:39:46;;;;;;;;;;;19.00;46.00;;;;;;491545;240;1026;-72
2021/05/23 06:41:48;;;;;;;;;;;19.00;46.00;;;;;;491457;240;1055;-73
2021/05/23 06:43:49;;;;;;;;;;;19.00;46.00;;;;;;491484;240;1082;-73
2021/05/23 06:45:50;;;;;;;;;;;19.00;46.00;;;;;;491459;240;1085;-73
2021/05/23 06:47:52;;;;;;;;;;;19.00;46.10;;;;;;491458;240;1146;-73
2021/05/23 06:49:53;;;;;;;;;;;19.00;46.00;;;;;;491516;240;982;-73
2021/05/23 06:51:54;;;;;;;;;;;19.00;46.00;;;;;;491445;240;1070;-73
2021/05/23 06:53:55;;;;;;;;;;;19.00;46.00;;;;;;491565;240;2187;-73
2021/05/23 06:55:57;;;;;;;;;;;19.00;46.00;;;;;;491483;240;1205;-73
2021/05/23 06:57:58;;;;;;;;;;;19.00;46.10;;;;;;491557;240;977;-73
2021/05/23 06:59:59;;;;;;;;;;;19.00;46.10;;;;;;491652;240;939;-73
2021/05/23 07:02:01;;;;;;;;;;;19.00;46.10;;;;;;491517;240;1230;-73
2021/05/23 07:04:02;;;;;;;;;;;19.00;46.10;;;;;;491551;240;1201;-73
2021/05/23 07:06:03;;;;;;;;;;;19.00;46.20;;;;;;491493;240;1207;-73
2021/05/23 07:08:04;;;;;;;;;;;19.00;46.20;;;;;;491599;240;1131;-73
2021/05/23 07:10:06;;;;;;;;;;;19.00;46.30;;;;;;491505;240;1049;-73
2021/05/23 07:12:07;;;;;;;;;;;19.00;46.30;;;;;;491548;240;1209;-73
2021/05/23 07:14:08;;;;;;;;;;;19.00;46.20;;;;;;491489;240;2171;-73
2021/05/23 07:16:10;;;;;;;;;;;19.00;46.20;;;;;;491469;240;1136;-73
2021/05/23 07:18:11;;;;;;;;;;;19.00;46.20;;;;;;491542;240;1188;-73
2021/05/23 07:20:12;;;;;;;;;;;19.00;46.20;;;;;;491587;240;1060;-73
2021/05/23 07:22:14;;;;;;;;;;;19.00;46.30;;;;;;491568;240;1233;-73
2021/05/23 07:24:15;;;;;;;;;;;18.90;46.30;;;;;;491639;240;977;-73
2021/05/23 07:26:16;;;;;;;;;;;19.00;46.50;;;;;;491597;240;1168;-73
2021/05/23 07:28:17;;;;;;;;;;;19.00;46.50;;;;;;491567;240;1098;-73
2021/05/23 07:30:19;;;;;;;;;;;18.90;46.50;;;;;;491612;240;1086;-73
2021/05/23 07:32:20;;;;;;;;;;;19.00;46.50;;;;;;491606;240;1180;-73
2021/05/23 07:34:21;;;;;;;;;;;19.00;46.50;;;;;;491557;240;2200;-73
2021/05/23 07:36:23;;;;;;;;;;;19.00;46.50;;;;;;491366;240;1168;-73
2021/05/23 07:38:24;;;;;;;;;;;19.00;46.50;;;;;;491544;240;1127;-73
2021/05/23 07:40:25;;;;;;;;;;;19.00;46.40;;;;;;491500;240;1133;-73
2021/05/23 07:42:26;;;;;;;;;;;19.10;46.40;;;;;;491581;240;1173;-73
2021/05/23 07:44:28;;;;;;;;;;;19.10;46.40;;;;;;491501;240;969;-73
2021/05/23 07:46:29;;;;;;;;;;;19.10;46.30;;;;;;491490;240;1162;-73
2021/05/23 07:48:31;;;;;;;;;;;19.10;46.20;;;;;;491585;240;1179;-73
2021/05/23 07:50:32;;;;;;;;;;;19.10;46.30;;;;;;491593;240;1100;-73
2021/05/23 07:52:33;;;;;;;;;;;19.00;46.30;;;;;;491596;240;1227;-73
2021/05/23 07:54:34;;;;;;;;;;;19.00;46.50;;;;;;491595;240;2192;-73
2021/05/23 07:56:35;;;;;;;;;;;19.00;46.50;;;;;;491529;240;1206;-73
2021/05/23 07:58:38;;;;;;;;;;;19.00;46.60;;;;;;491566;240;1053;-73
2021/05/23 08:00:38;;;;;;;;;;;19.00;46.60;;;;;;491600;240;1329;-73
2021/05/23 08:02:39;;;;;;;;;;;19.00;46.60;;;;;;491519;240;1226;-73
2021/05/23 08:04:40;;;;;;;;;;;19.00;46.50;;;;;;491543;240;1193;-73
2021/05/23 08:06:42;;;;;;;;;;;19.00;46.60;;;;;;491482;240;1142;-73
2021/05/23 08:08:43;;;;;;;;;;;19.10;46.60;;;;;;491553;240;1096;-73
2021/05/23 08:10:44;;;;;;;;;;;19.10;46.40;;;;;;491556;240;1055;-73
2021/05/23 08:12:46;;;;;;;;;;;19.10;46.40;;;;;;491556;240;1100;-72
2021/05/23 08:14:47;;;;;;;;;;;19.10;46.40;;;;;;491512;240;2195;-73
2021/05/23 08:16:48;;;;;;;;;;;19.10;46.50;;;;;;491600;240;1184;-73
2021/05/23 08:18:49;;;;;;;;;;;19.00;46.50;;;;;;491684;240;1061;-73
2021/05/23 08:20:54;;;;;;;;;;;19.00;46.50;;;;;;491540;240;1081;-73
2021/05/23 08:22:52;;;;;;;;;;;19.10;46.60;;;;;;491695;240;1415;-73
2021/05/23 08:24:53;;;;;;;;;;;19.10;46.60;;;;;;491562;240;1210;-73
2021/05/23 08:26:55;;;;;;;;;;;19.10;46.60;;;;;;491545;240;1089;-73
2021/05/23 08:28:56;;;;;;;;;;;19.10;46.60;;;;;;491618;240;1107;-73
2021/05/23 08:30:57;;;;;;;;;;;19.00;46.70;;;;;;491517;240;1061;-73
2021/05/23 08:32:59;;;;;;;;;;;19.00;46.90;;;;;;491515;240;1026;-73
2021/05/23 08:35:00;;;;;;;;;;;19.00;47.00;;;;;;491472;240;2184;-72
2021/05/23 08:37:01;;;;;;;;;;;19.00;47.10;;;;;;491487;240;1313;-73
2021/05/23 08:39:02;;;;;;;;;;;19.00;47.20;;;;;;491498;240;1021;-73
2021/05/23 08:41:04;;;;;;;;;;;19.00;47.20;;;;;;491517;240;1060;-73
2021/05/23 08:43:08;;;;;;;;;;;19.00;47.20;;;;;;491636;240;1074;-73
2021/05/23 08:45:06;;;;;;;;;;;19.10;47.20;;;;;;491554;240;1336;-73
2021/05/23 08:47:07;;;;;;;;;;;19.10;47.10;;;;;;491584;240;1091;-73
2021/05/23 08:49:09;;;;;;;;;;;19.10;47.10;;;;;;491579;240;1305;-73
2021/05/23 08:51:10;;;;;;;;;;;19.10;47.10;;;;;;491485;240;1224;-73
2021/05/23 08:53:11;;;;;;;;;;;19.10;47.10;;;;;;491604;240;936;-73
2021/05/23 08:55:15;;;;;;;;;;;19.10;47.00;;;;;;491551;240;2128;-73
2021/05/23 08:57:15;;;;;;;;;;;19.10;47.00;;;;;;491471;240;1445;-73
2021/05/23 08:59:16;;;;;;;;;;;19.10;47.10;;;;;;491533;240;1015;-73
2021/05/23 09:01:18;;;;;;;;;;;19.10;47.30;;;;;;491497;240;991;-73
2021/05/23 09:03:19;;;;;;;;;;;19.00;47.40;;;;;;491506;240;1106;-73
2021/05/23 09:05:20;;;;;;;;;;;19.00;47.40;;;;;;491450;240;1171;-73
2021/05/23 09:07:21;;;;;;;;;;;19.00;47.50;;;;;;491589;240;1032;-73
2021/05/23 09:09:23;;;;;;;;;;;19.00;47.50;;;;;;491667;240;1096;-73
2021/05/23 09:11:24;;;;;;;;;;;19.00;47.50;;;;;;491631;240;1023;-73
2021/05/23 09:13:25;;;;;;;;;;;19.00;47.40;;;;;;491554;240;1139;-72
2021/05/23 09:15:27;;;;;;;;;;;19.00;47.40;;;;;;491632;240;2187;-73
2021/05/23 09:17:28;;;;;;;;;;;19.10;47.40;;;;;;491524;240;1139;-73
2021/05/23 09:19:30;;;;;;;;;;;19.10;47.30;;;;;;491607;240;1249;-73
2021/05/23 09:21:31;;;;;;;;;;;19.10;47.30;;;;;;491504;240;962;-73
2021/05/23 09:23:32;;;;;;;;;;;19.10;47.30;;;;;;491571;240;1063;-73
2021/05/23 09:25:34;;;;;;;;;;;19.10;47.30;;;;;;491446;240;965;-73
2021/05/23 09:27:35;;;;;;;;;;;19.00;47.20;;;;;;491478;240;1119;-73
2021/05/23 09:29:36;;;;;;;;;;;19.00;47.20;;;;;;491478;240;1241;-73
2021/05/23 09:31:37;;;;;;;;;;;19.10;47.20;;;;;;491457;240;983;-73
2021/05/23 09:33:39;;;;;;;;;;;19.10;47.10;;;;;;491540;240;1072;-73
2021/05/23 09:35:40;;;;;;;;;;;19.10;46.90;;;;;;491514;240;2175;-73
2021/05/23 09:37:41;;;;;;;;;;;19.10;46.90;;;;;;491588;240;1089;-73
2021/05/23 09:39:43;;;;;;;;;;;19.10;46.90;;;;;;491539;240;1081;-73
2021/05/23 09:41:44;;;;;;;;;;;19.00;46.90;;;;;;491519;240;985;-73
2021/05/23 09:43:45;;;;;;;;;;;19.00;46.90;;;;;;491609;240;965;-73
2021/05/23 09:45:46;;;;;;;;;;;19.00;46.80;;;;;;491523;240;959;-73
2021/05/23 09:47:48;;;;;;;;;;;19.00;46.70;;;;;;491549;240;1043;-73
2021/05/23 09:49:53;;;;;;;;;;;19.10;46.60;;;;;;491522;240;1041;-73
2021/05/23 09:51:51;;;;;;;;;;;19.10;46.60;;;;;;491483;240;1462;-73
2021/05/23 09:53:52;;;;;;;;;;;19.10;46.60;;;;;;491536;240;1092;-73
2021/05/23 09:55:54;;;;;;;;;;;19.10;46.60;;;;;;491483;240;2145;-73
2021/05/23 09:57:55;;;;;;;;;;;19.10;46.60;;;;;;491527;240;1114;-73
2021/05/23 09:59:56;;;;;;;;;;;19.10;46.60;;;;;;491581;240;1034;-73
2021/05/23 10:01:58;;;;;;;;;;;19.10;46.60;;;;;;491514;240;1114;-73
2021/05/23 10:04:01;;;;;;;;;;;19.20;46.70;;;;;;491636;240;1171;-73
2021/05/23 10:06:00;;;;;;;;;;;19.10;46.70;;;;;;491582;240;1392;-73
2021/05/23 10:08:01;;;;;;;;;;;19.10;46.80;;;;;;491600;240;945;-73
2021/05/23 10:10:03;;;;;;;;;;;19.10;46.90;;;;;;491519;240;991;-73
2021/05/23 10:12:06;;;;;;;;;;;19.00;47.00;;;;;;491556;240;1193;-73
2021/05/23 10:14:05;;;;;;;;;;;19.00;47.10;;;;;;491608;240;1391;-73
2021/05/23 10:16:06;;;;;;;;;;;19.00;47.10;;;;;;491483;240;2141;-73
2021/05/23 10:18:08;;;;;;;;;;;19.00;47.20;;;;;;491408;240;1096;-73
2021/05/23 10:20:09;;;;;;;;;;;19.00;47.20;;;;;;491507;240;1042;-73
2021/05/23 10:22:10;;;;;;;;;;;19.00;47.30;;;;;;491392;240;1175;-73
2021/05/23 10:24:12;;;;;;;;;;;19.00;47.20;;;;;;491518;240;1037;-73
2021/05/23 10:26:13;;;;;;;;;;;19.10;47.20;;;;;;491477;240;1065;-73
2021/05/23 10:28:14;;;;;;;;;;;19.00;47.20;;;;;;491611;240;1075;-73
2021/05/23 10:30:16;;;;;;;;;;;19.10;47.20;;;;;;491588;240;1143;-73
2021/05/23 10:32:17;;;;;;;;;;;19.10;47.20;;;;;;491603;240;1040;-73
2021/05/23 10:34:18;;;;;;;;;;;19.10;47.20;;;;;;491591;240;1219;-73
2021/05/23 10:36:19;;;;;;;;;;;19.10;47.10;;;;;;491516;240;2128;-73
2021/05/23 10:38:22;;;;;;;;;;;19.10;47.10;;;;;;491586;240;1087;-73
2021/05/23 10:40:22;;;;;;;;;;;19.10;47.20;;;;;;491546;240;1348;-73
2021/05/23 10:42:24;;;;;;;;;;;19.10;47.30;;;;;;491365;240;1099;-73
2021/05/23 10:44:25;;;;;;;;;;;19.10;47.30;;;;;;491462;240;1412;-73
2021/05/23 10:46:26;;;;;;;;;;;19.10;47.40;;;;;;491332;240;1095;-73
2021/05/23 10:48:28;;;;;;;;;;;19.00;47.50;;;;;;491500;240;1068;-73
2021/05/23 10:50:29;;;;;;;;;;;19.10;47.50;;;;;;491428;240;1144;-73
2021/05/23 10:52:30;;;;;;;;;;;19.10;47.50;;;;;;491369;240;1176;-73
2021/05/23 10:54:31;;;;;;;;;;;19.10;47.50;;;;;;491631;240;1061;-73
2021/05/23 10:56:33;;;;;;;;;;;19.10;47.50;;;;;;491405;240;2200;-73
2021/05/23 10:58:34;;;;;;;;;;;19.10;47.60;;;;;;491596;240;1041;-73
2021/05/23 11:00:36;;;;;;;;;;;19.10;47.70;;;;;;491570;240;948;-73
2021/05/23 11:02:37;;;;;;;;;;;19.10;47.70;;;;;;491505;240;1113;-73
2021/05/23 11:04:39;;;;;;;;;;;19.00;47.70;;;;;;491627;240;1088;-73
2021/05/23 11:06:40;;;;;;;;;;;19.10;47.80;;;;;;491552;240;1303;-73
2021/05/23 11:08:42;;;;;;;;;;;19.10;47.90;;;;;;491399;240;1144;-73
2021/05/23 11:10:43;;;;;;;;;;;19.10;47.90;;;;;;491458;240;1350;-73
2021/05/23 11:12:44;;;;;;;;;;;19.10;47.80;;;;;;491445;240;1103;-73
2021/05/23 11:14:45;;;;;;;;;;;19.10;47.90;;;;;;491586;240;1103;-73
2021/05/23 11:16:47;;;;;;;;;;;19.10;48.10;;;;;;491390;240;2137;-73
2021/05/23 11:18:48;;;;;;;;;;;19.10;48.20;;;;;;491557;240;1028;-73
2021/05/23 11:20:49;;;;;;;;;;;19.10;48.20;;;;;;491498;240;1095;-73
2021/05/23 11:22:51;;;;;;;;;;;19.10;48.20;;;;;;491483;240;1113;-73
2021/05/23 11:24:52;;;;;;;;;;;19.10;48.20;;;;;;491632;240;1122;-73
2021/05/23 11:26:53;;;;;;;;;;;19.10;48.10;;;;;;491453;240;1209;-73
2021/05/23 11:28:55;;;;;;;;;;;19.10;48.10;;;;;;491621;240;960;-73
2021/05/23 11:30:56;;;;;;;;;;;19.10;48.00;;;;;;491484;240;1240;-73
2021/05/23 11:32:57;;;;;;;;;;;19.10;48.00;;;;;;491507;240;1066;-73
2021/05/23 11:34:58;;;;;;;;;;;19.00;48.00;;;;;;491432;240;1106;-73
2021/05/23 11:37:00;;;;;;;;;;;19.10;47.90;;;;;;491417;240;2196;-73
2021/05/23 11:39:01;;;;;;;;;;;19.00;48.00;;;;;;491531;240;1140;-73
2021/05/23 11:41:02;;;;;;;;;;;19.10;48.10;;;;;;491470;240;1191;-73
2021/05/23 11:43:04;;;;;;;;;;;19.10;48.10;;;;;;491479;240;1086;-73
2021/05/23 11:45:05;;;;;;;;;;;19.10;48.00;;;;;;491549;240;1167;-73
2021/05/23 11:47:06;;;;;;;;;;;19.10;47.80;;;;;;491565;240;1292;-73
2021/05/23 11:49:07;;;;;;;;;;;19.10;47.70;;;;;;491726;240;1096;-73
2021/05/23 11:51:09;;;;;;;;;;;19.10;47.70;;;;;;491595;240;1224;-73
2021/05/23 11:53:10;;;;;;;;;;;19.10;47.70;;;;;;491593;240;1229;-73
2021/05/23 11:55:11;;;;;;;;;;;19.10;47.70;;;;;;491614;240;981;-73
2021/05/23 11:57:13;;;;;;;;;;;19.00;47.70;;;;;;491500;240;2156;-73